Time;durP1;ratioP1;P1;durP2;ratioP2;P2;SDS_P1;SDS_P2;PMS_P1;PMS_P2;Temp;Humidity;BMP_temperature;BMP_pressure;BME280_temperature;BME280_humidity;BME280_pressure;Samples;Min_cycle;Max_cycle;Signal;HPM_P1;HPM_P2
2024/01/03 00:00:58;;;;;;;6.68;1.73;;;10.10;99.90;;;;;;4914099;28;20027;-78
2024/01/03 00:03:24;;;;;;;9.18;1.00;;;10.00;99.90;;;;;;4941655;28;20026;-79
2024/01/03 00:05:50;;;;;;;12.20;1.60;;;10.00;99.90;;;;;;4946199;28;20378;-76
2024/01/03 00:08:23;;;;;;;6.82;1.30;;;9.90;99.90;;;;;;4945984;28;20038;-76
2024/01/03 00:10:51;;;;;;;9.27;1.35;;;9.90;99.90;;;;;;4927823;28;20502;-76
2024/01/03 00:13:34;;;;;;;11.65;2.58;;;9.80;99.90;;;;;;4946330;28;20117;-76
2024/01/03 00:16:00;;;;;;;8.32;1.20;;;9.80;99.90;;;;;;4951079;28;20497;-76
2024/01/03 00:18:35;;;;;;;3.35;1.00;;;9.80;99.90;;;;;;4959254;28;20038;-76
2024/01/03 00:21:08;;;;;;;13.90;2.13;;;9.70;99.90;;;;;;4929510;28;20051;-75
2024/01/03 00:24:05;;;;;;;9.05;1.52;;;9.60;99.90;;;;;;4943663;28;20101;-75
2024/01/03 00:26:32;;;;;;;9.20;1.67;;;9.60;99.90;;;;;;4932089;28;20374;-76
2024/01/03 00:28:58;;;;;;;11.20;1.65;;;9.60;99.90;;;;;;4932578;28;20023;-76
2024/01/03 00:31:42;;;;;;;7.88;1.67;;;9.50;99.90;;;;;;4946650;28;20126;-75
2024/01/03 00:34:23;;;;;;;10.50;1.55;;;9.60;99.90;;;;;;4947663;28;20034;-75
2024/01/03 00:36:55;;;;;;;10.65;1.65;;;9.50;99.90;;;;;;4961319;28;20397;-75
2024/01/03 00:39:32;;;;;;;10.93;2.42;;;9.50;99.90;;;;;;4945999;28;20537;-76
2024/01/03 00:41:58;;;;;;;9.73;1.80;;;9.50;99.90;;;;;;4944897;28;20081;-76
2024/01/03 00:44:24;;;;;;;3.80;0.85;;;9.50;99.90;;;;;;4929629;28;20421;-75
2024/01/03 00:46:52;;;;;;;9.27;2.13;;;9.50;99.90;;;;;;4908395;28;20422;-77
2024/01/03 00:49:18;;;;;;;8.35;1.48;;;9.50;99.90;;;;;;4926046;28;20034;-76
2024/01/03 00:51:46;;;;;;;5.35;1.77;;;9.40;99.90;;;;;;4944209;28;20046;-76
2024/01/03 00:54:11;;;;;;;4.47;0.95;;;9.40;99.90;;;;;;4942101;28;20109;-75
2024/01/03 00:56:37;;;;;;;6.13;1.40;;;9.40;99.90;;;;;;4931481;28;20535;-76
2024/01/03 00:59:02;;;;;;;5.50;0.95;;;9.30;99.90;;;;;;4943283;28;20469;-75
2024/01/03 01:01:28;;;;;;;5.90;1.27;;;9.30;99.90;;;;;;4929095;28;20544;-78
2024/01/03 01:03:53;;;;;;;15.65;2.33;;;9.20;99.90;;;;;;4928346;28;20045;-78
2024/01/03 01:06:19;;;;;;;10.50;1.85;;;9.30;99.90;;;;;;4931310;28;20031;-77
2024/01/03 01:08:44;;;;;;;12.82;3.45;;;9.30;99.90;;;;;;4958053;28;20042;-78
2024/01/03 01:11:10;;;;;;;12.82;2.63;;;9.20;99.90;;;;;;4943338;28;20038;-78
2024/01/03 01:13:36;;;;;;;9.38;1.17;;;9.20;99.90;;;;;;4945176;28;20086;-78
2024/01/03 01:16:01;;;;;;;13.82;1.40;;;9.20;99.90;;;;;;4941536;28;20062;-78
2024/01/03 01:18:27;;;;;;;7.78;1.40;;;9.20;99.90;;;;;;4945447;28;20034;-79
2024/01/03 01:20:52;;;;;;;6.43;0.75;;;9.20;99.90;;;;;;4908584;28;20023;-78
2024/01/03 01:23:18;;;;;;;8.40;1.95;;;9.20;99.90;;;;;;4945319;28;20482;-78
2024/01/03 01:25:43;;;;;;;15.40;2.33;;;9.20;99.90;;;;;;4943023;28;20062;-78
2024/01/03 01:28:09;;;;;;;13.25;1.85;;;9.20;99.90;;;;;;4942115;28;20073;-78
2024/01/03 01:30:34;;;;;;;12.50;1.75;;;9.20;99.90;;;;;;4925642;28;20584;-78
2024/01/03 01:33:00;;;;;;;6.90;1.13;;;9.20;99.90;;;;;;4928813;28;20042;-79
2024/01/03 01:35:25;;;;;;;4.05;1.05;;;9.20;99.90;;;;;;4942337;28;20039;-79
2024/01/03 01:37:51;;;;;;;9.45;2.15;;;9.20;99.90;;;;;;4926809;28;20420;-78
2024/01/03 01:40:17;;;;;;;15.57;2.38;;;9.10;99.90;;;;;;4932915;28;20031;-78
2024/01/03 01:42:43;;;;;;;17.55;2.42;;;9.20;99.90;;;;;;4943869;28;20117;-79
2024/01/03 01:45:09;;;;;;;6.15;0.98;;;9.20;99.90;;;;;;4928867;28;20489;-78
2024/01/03 01:47:35;;;;;;;14.27;1.70;;;9.20;99.90;;;;;;4927944;28;20031;-78
2024/01/03 01:50:01;;;;;;;14.27;2.22;;;9.30;99.90;;;;;;4908559;28;20070;-78
2024/01/03 01:52:26;;;;;;;13.48;2.17;;;9.30;99.90;;;;;;4929229;28;20109;-79
2024/01/03 01:54:52;;;;;;;9.85;1.90;;;9.20;99.90;;;;;;4932014;28;20468;-79
2024/01/03 01:57:17;;;;;;;11.82;1.85;;;9.20;99.90;;;;;;4944581;28;20038;-79
2024/01/03 01:59:43;;;;;;;7.10;1.10;;;9.10;99.90;;;;;;4929244;28;20045;-78
2024/01/03 02:02:09;;;;;;;7.25;1.25;;;9.10;99.90;;;;;;4927059;28;20054;-79
2024/01/03 02:04:35;;;;;;;9.15;1.88;;;9.10;99.90;;;;;;4944637;28;20027;-79
2024/01/03 02:07:01;;;;;;;8.82;0.98;;;9.10;99.90;;;;;;4939000;28;20165;-79
2024/01/03 02:09:26;;;;;;;13.90;2.67;;;9.20;99.90;;;;;;4929651;28;20074;-79
2024/01/03 02:11:52;;;;;;;14.60;1.90;;;9.00;99.90;;;;;;4941827;28;20148;-79
2024/01/03 02:14:17;;;;;;;11.00;2.05;;;9.10;99.90;;;;;;4942053;28;20035;-79
2024/01/03 02:16:43;;;;;;;10.68;1.70;;;9.10;99.90;;;;;;4960046;28;20041;-78
2024/01/03 02:19:08;;;;;;;6.25;0.98;;;9.10;99.90;;;;;;4929953;28;20031;-79
2024/01/03 02:21:34;;;;;;;1.48;0.65;;;9.10;99.90;;;;;;4931685;28;20031;-79
2024/01/03 02:23:59;;;;;;;15.90;2.15;;;9.10;99.90;;;;;;4944293;28;20030;-79
2024/01/03 02:26:25;;;;;;;10.80;1.27;;;9.10;99.90;;;;;;4941552;28;20031;-79
2024/01/03 02:28:50;;;;;;;6.43;1.23;;;9.10;99.90;;;;;;4961954;28;20027;-79
2024/01/03 02:31:16;;;;;;;6.85;1.33;;;9.10;99.90;;;;;;4944503;28;20039;-79
2024/01/03 02:33:42;;;;;;;10.88;1.35;;;9.20;99.90;;;;;;4916791;28;20031;-79
2024/01/03 02:36:07;;;;;;;7.68;0.80;;;9.10;99.90;;;;;;4935681;28;20077;-79
2024/01/03 02:38:33;;;;;;;14.77;2.05;;;9.10;99.90;;;;;;4944942;28;20122;-79
2024/01/03 02:40:59;;;;;;;2.47;0.73;;;9.10;99.90;;;;;;4947445;28;20031;-79
2024/01/03 02:43:25;;;;;;;2.78;0.77;;;9.10;99.90;;;;;;4928670;28;20035;-79
2024/01/03 02:45:50;;;;;;;11.63;2.25;;;9.10;99.90;;;;;;4912236;28;21232;-79
2024/01/03 02:48:16;;;;;;;6.13;0.93;;;9.10;99.90;;;;;;4944011;28;20045;-79
2024/01/03 02:50:47;;;;;;;6.05;0.93;;;9.00;99.90;;;;;;4950222;28;20035;-79
2024/01/03 02:53:13;;;;;;;9.90;1.58;;;9.00;99.90;;;;;;4933180;28;20525;-79
2024/01/03 02:55:39;;;;;;;6.47;1.50;;;9.00;99.90;;;;;;4960705;28;20121;-79
2024/01/03 02:58:04;;;;;;;7.32;1.63;;;9.00;99.90;;;;;;4929682;28;20122;-80
2024/01/03 03:00:30;;;;;;;3.42;0.75;;;9.10;99.90;;;;;;4947245;28;20437;-79
2024/01/03 03:02:55;;;;;;;8.02;1.40;;;9.10;99.90;;;;;;4946930;28;20035;-79
2024/01/03 03:05:21;;;;;;;7.75;1.55;;;9.00;99.90;;;;;;4917998;28;20062;-80
2024/01/03 03:07:46;;;;;;;5.43;0.88;;;9.00;99.90;;;;;;4948696;28;20062;-79
2024/01/03 03:10:14;;;;;;;7.43;0.95;;;9.00;99.90;;;;;;4946547;28;20992;-79
2024/01/03 03:12:39;;;;;;;14.30;1.02;;;9.10;99.90;;;;;;4946924;28;20097;-79
2024/01/03 03:15:05;;;;;;;4.63;0.80;;;9.00;99.90;;;;;;4961764;28;20485;-80
2024/01/03 03:17:31;;;;;;;8.98;1.33;;;9.00;99.90;;;;;;4948686;28;20401;-79
2024/01/03 03:19:57;;;;;;;8.50;2.20;;;9.00;99.90;;;;;;4932520;28;20027;-79
2024/01/03 03:22:22;;;;;;;4.55;0.63;;;9.00;99.90;;;;;;4947885;28;20039;-79
2024/01/03 03:24:48;;;;;;;1.58;0.50;;;9.00;99.90;;;;;;4933834;28;20489;-79
2024/01/03 03:27:14;;;;;;;2.00;0.75;;;9.00;99.90;;;;;;4949014;28;20066;-79
2024/01/03 03:29:39;;;;;;;1.80;0.70;;;9.00;99.90;;;;;;4963933;28;20054;-79
2024/01/03 03:32:05;;;;;;;9.15;1.33;;;9.00;99.90;;;;;;4931035;28;20043;-78
2024/01/03 03:34:31;;;;;;;6.20;0.80;;;9.00;99.90;;;;;;4931913;28;20459;-78
2024/01/03 03:36:56;;;;;;;7.38;1.92;;;9.00;99.90;;;;;;4928854;28;20513;-78
2024/01/03 03:39:22;;;;;;;7.32;0.80;;;9.00;99.90;;;;;;4932521;28;20030;-79
2024/01/03 03:41:47;;;;;;;6.43;1.70;;;9.00;99.90;;;;;;4912811;28;20378;-78
2024/01/03 03:44:13;;;;;;;7.38;1.08;;;9.00;99.90;;;;;;4947393;28;21104;-79
2024/01/03 03:46:39;;;;;;;11.88;1.02;;;9.00;99.90;;;;;;4931772;28;20476;-79
2024/01/03 03:49:04;;;;;;;2.53;0.63;;;9.00;99.90;;;;;;4932628;28;20464;-79
2024/01/03 03:51:30;;;;;;;4.30;1.20;;;9.00;99.90;;;;;;4947286;28;20030;-79
2024/01/03 03:53:58;;;;;;;3.05;0.60;;;9.20;99.90;;;;;;4945986;28;20409;-79
2024/01/03 03:56:24;;;;;;;4.97;0.93;;;9.10;99.90;;;;;;4945633;28;20035;-79
2024/01/03 03:58:50;;;;;;;6.80;0.98;;;9.10;99.90;;;;;;4947837;28;20078;-79
2024/01/03 04:01:15;;;;;;;3.13;0.80;;;9.10;99.90;;;;;;4931126;28;20030;-79
2024/01/03 04:03:41;;;;;;;8.57;1.27;;;9.10;99.90;;;;;;4929358;28;20083;-79
2024/01/03 04:06:06;;;;;;;3.03;0.88;;;9.10;99.90;;;;;;4931358;28;20055;-79
2024/01/03 04:08:32;;;;;;;9.23;0.95;;;9.20;99.90;;;;;;4929119;28;20518;-79
2024/01/03 04:10:57;;;;;;;6.10;1.05;;;9.20;99.90;;;;;;4939876;28;20031;-79
2024/01/03 04:13:23;;;;;;;5.97;0.82;;;9.20;99.90;;;;;;4946674;28;20050;-79
2024/01/03 04:15:48;;;;;;;5.72;0.95;;;9.20;99.90;;;;;;4943804;28;20046;-78
2024/01/03 04:18:14;;;;;;;3.47;0.55;;;9.10;99.90;;;;;;4930640;28;20035;-79
2024/01/03 04:20:39;;;;;;;6.35;0.70;;;9.10;99.90;;;;;;4944241;28;20574;-78
2024/01/03 04:23:05;;;;;;;4.05;1.02;;;9.20;99.90;;;;;;4946437;28;20485;-78
2024/01/03 04:25:30;;;;;;;5.70;0.85;;;9.10;99.90;;;;;;4909386;28;20049;-79
2024/01/03 04:27:56;;;;;;;4.50;1.48;;;9.10;99.90;;;;;;4921829;28;20101;-79
2024/01/03 04:30:21;;;;;;;1.30;0.45;;;9.00;99.90;;;;;;4946373;28;20164;-76
2024/01/03 04:32:47;;;;;;;4.55;1.23;;;9.10;99.90;;;;;;4948047;28;20038;-76
2024/01/03 04:35:12;;;;;;;6.10;1.38;;;9.10;99.90;;;;;;4933007;28;20047;-77
2024/01/03 04:37:38;;;;;;;7.82;0.90;;;9.10;99.90;;;;;;4947421;28;20039;-76
2024/01/03 04:40:04;;;;;;;11.10;0.80;;;9.10;99.90;;;;;;4948849;28;20558;-76
2024/01/03 04:42:30;;;;;;;5.43;1.05;;;9.10;99.90;;;;;;4933340;28;20173;-76
2024/01/03 04:44:55;;;;;;;4.75;0.50;;;9.10;99.90;;;;;;4915061;28;20043;-76
2024/01/03 04:47:21;;;;;;;8.02;0.75;;;9.00;99.90;;;;;;4913493;28;20073;-77
2024/01/03 04:49:46;;;;;;;0.82;0.60;;;9.10;99.90;;;;;;4935555;28;20055;-77
2024/01/03 04:52:12;;;;;;;1.88;0.57;;;9.10;99.90;;;;;;4933106;28;20035;-76
2024/01/03 04:54:37;;;;;;;6.57;1.13;;;9.10;99.90;;;;;;4944092;28;20085;-76
2024/01/03 04:57:03;;;;;;;7.65;1.60;;;9.00;99.90;;;;;;4955159;28;20038;-76
2024/01/03 04:59:29;;;;;;;8.07;1.95;;;9.10;99.90;;;;;;4965633;28;20042;-76
2024/01/03 05:01:54;;;;;;;6.53;1.73;;;9.00;99.90;;;;;;4962710;28;20484;-76
2024/01/03 05:04:20;;;;;;;3.95;1.05;;;9.00;99.90;;;;;;4948309;28;20059;-76
2024/01/03 05:06:45;;;;;;;9.45;1.92;;;9.10;99.90;;;;;;4928869;28;20680;-77
2024/01/03 05:09:11;;;;;;;9.93;1.35;;;9.10;99.90;;;;;;4931206;28;20135;-77
2024/01/03 05:11:37;;;;;;;6.30;1.40;;;9.20;99.90;;;;;;4944179;28;20054;-77
2024/01/03 05:14:02;;;;;;;7.22;1.25;;;9.10;99.90;;;;;;4948851;28;20023;-76
2024/01/03 05:16:28;;;;;;;6.30;1.23;;;9.10;99.90;;;;;;4932041;28;20070;-76
2024/01/03 05:18:53;;;;;;;5.32;0.45;;;9.10;99.90;;;;;;4952287;28;20057;-76
2024/01/03 05:21:19;;;;;;;5.60;1.17;;;9.20;99.90;;;;;;4960199;28;20050;-76
2024/01/03 05:23:44;;;;;;;5.45;0.88;;;9.20;99.90;;;;;;4916502;28;20027;-77
2024/01/03 05:26:10;;;;;;;10.70;1.77;;;9.20;99.90;;;;;;4947177;28;20042;-77
2024/01/03 05:28:36;;;;;;;3.60;0.73;;;9.30;99.90;;;;;;4929146;28;20077;-77
2024/01/03 05:31:01;;;;;;;9.13;1.63;;;9.30;99.90;;;;;;4960431;28;20077;-77
2024/01/03 05:33:27;;;;;;;2.58;0.73;;;9.30;99.90;;;;;;4962158;28;20030;-78
2024/01/03 05:35:52;;;;;;;8.85;0.75;;;9.30;99.90;;;;;;4931838;28;20042;-76
2024/01/03 05:38:18;;;;;;;12.30;1.30;;;9.30;99.90;;;;;;4945227;28;20050;-77
2024/01/03 05:40:44;;;;;;;3.70;0.63;;;9.30;99.90;;;;;;4946840;28;20034;-77
2024/01/03 05:43:11;;;;;;;5.10;0.73;;;9.30;99.90;;;;;;4936945;28;20409;-76
2024/01/03 05:45:37;;;;;;;3.67;0.17;;;9.40;99.90;;;;;;4948577;28;20035;-76
2024/01/03 05:48:03;;;;;;;0.85;0.43;;;9.40;99.90;;;;;;4930916;28;20047;-76
2024/01/03 05:50:28;;;;;;;7.57;1.83;;;9.40;99.90;;;;;;4947701;28;20035;-76
2024/01/03 05:52:54;;;;;;;3.17;0.70;;;9.40;99.90;;;;;;4929356;28;20058;-75
2024/01/03 05:55:19;;;;;;;1.80;0.73;;;9.40;99.90;;;;;;4959282;28;20071;-77
2024/01/03 05:57:45;;;;;;;2.33;0.20;;;9.40;99.90;;;;;;4931014;28;20030;-76
2024/01/03 06:00:11;;;;;;;1.85;0.50;;;9.40;99.90;;;;;;4913649;28;20054;-76
2024/01/03 06:02:36;;;;;;;0.55;0.43;;;9.40;99.90;;;;;;4913713;28;20546;-76
2024/01/03 06:05:02;;;;;;;3.03;0.32;;;9.40;99.90;;;;;;4931531;28;20032;-76
2024/01/03 06:07:28;;;;;;;2.85;0.47;;;9.30;99.90;;;;;;4945794;28;20050;-76
2024/01/03 06:09:53;;;;;;;2.00;0.40;;;9.20;99.90;;;;;;4930112;28;20047;-76
2024/01/03 06:12:19;;;;;;;6.32;1.42;;;9.20;99.90;;;;;;4960740;28;20043;-76
2024/01/03 06:14:44;;;;;;;4.45;0.80;;;9.30;99.90;;;;;;4951529;28;20070;-76
2024/01/03 06:17:10;;;;;;;8.95;0.73;;;9.30;99.90;;;;;;4929491;28;20065;-77
2024/01/03 06:19:35;;;;;;;8.57;0.85;;;9.30;99.90;;;;;;4932974;28;20035;-76
2024/01/03 06:22:01;;;;;;;3.35;0.70;;;9.20;99.90;;;;;;4948043;28;20110;-76
2024/01/03 06:24:27;;;;;;;4.63;0.65;;;9.20;99.90;;;;;;4948925;28;20035;-76
2024/01/03 06:26:52;;;;;;;6.00;1.13;;;9.30;99.90;;;;;;4932990;28;20070;-76
2024/01/03 06:29:18;;;;;;;6.15;0.75;;;9.20;99.90;;;;;;4951697;28;20077;-76
2024/01/03 06:31:43;;;;;;;5.85;0.85;;;9.20;99.90;;;;;;4949552;28;20058;-76
2024/01/03 06:34:09;;;;;;;8.55;1.05;;;9.20;99.90;;;;;;4918309;28;20031;-76
2024/01/03 06:36:34;;;;;;;4.72;1.13;;;9.20;99.90;;;;;;4950260;28;20031;-76
2024/01/03 06:39:00;;;;;;;2.42;1.10;;;9.10;99.90;;;;;;4965233;28;20173;-76
2024/01/03 06:41:25;;;;;;;10.57;1.70;;;9.10;99.90;;;;;;4962880;28;20026;-76
2024/01/03 06:43:51;;;;;;;13.15;1.38;;;9.10;99.90;;;;;;4948734;28;20392;-76
2024/01/03 06:46:16;;;;;;;8.48;1.35;;;9.10;99.90;;;;;;4964220;28;20389;-76
2024/01/03 06:48:42;;;;;;;6.32;0.70;;;9.00;99.90;;;;;;4921000;28;20082;-79
2024/01/03 06:51:07;;;;;;;2.67;0.65;;;9.10;99.90;;;;;;4930854;28;20034;-76
2024/01/03 06:53:34;;;;;;;2.22;0.73;;;9.10;99.90;;;;;;4933327;28;20425;-76
2024/01/03 06:56:00;;;;;;;5.72;0.50;;;9.10;99.90;;;;;;4929386;28;20568;-76
2024/01/03 06:58:26;;;;;;;7.25;1.35;;;9.00;99.90;;;;;;4948737;28;20035;-76
2024/01/03 07:00:51;;;;;;;5.90;1.02;;;9.10;99.90;;;;;;4932381;28;20392;-76
2024/01/03 07:03:17;;;;;;;5.80;1.35;;;9.00;99.90;;;;;;4932925;28;20518;-76
2024/01/03 07:05:42;;;;;;;4.75;0.52;;;9.00;99.90;;;;;;4943948;28;20039;-76
2024/01/03 07:08:08;;;;;;;4.63;1.17;;;9.00;99.90;;;;;;4944394;28;20042;-76
2024/01/03 07:10:34;;;;;;;8.23;1.23;;;9.00;99.90;;;;;;4933820;28;20031;-76
2024/01/03 07:13:00;;;;;;;5.03;1.20;;;9.00;99.90;;;;;;4943715;28;20433;-79
2024/01/03 07:15:26;;;;;;;5.93;0.50;;;9.00;99.90;;;;;;4918583;28;20039;-79
2024/01/03 07:17:55;;;;;;;4.60;0.50;;;9.00;99.90;;;;;;4926364;28;20484;-80
2024/01/03 07:20:22;;;;;;;7.72;0.88;;;9.00;99.90;;;;;;4947469;28;20532;-80
2024/01/03 07:22:51;;;;;;;6.35;0.98;;;9.00;99.90;;;;;;4939581;28;20035;-80
2024/01/03 07:25:17;;;;;;;7.30;1.30;;;9.00;99.90;;;;;;4930827;28;20078;-80
2024/01/03 07:27:42;;;;;;;4.63;0.80;;;9.00;99.90;;;;;;4944639;28;20484;-79
2024/01/03 07:30:09;;;;;;;3.55;0.45;;;9.00;99.90;;;;;;4960332;28;20039;-79
2024/01/03 07:32:34;;;;;;;7.93;0.93;;;9.10;99.90;;;;;;4948151;28;20062;-79
2024/01/03 07:35:00;;;;;;;10.32;1.42;;;9.10;99.90;;;;;;4912479;28;20487;-80
2024/01/03 07:37:26;;;;;;;0.93;0.50;;;9.00;99.90;;;;;;4948416;28;20097;-79
2024/01/03 07:39:52;;;;;;;10.57;1.75;;;9.00;99.90;;;;;;4945506;28;20133;-79
2024/01/03 07:42:17;;;;;;;1.98;0.52;;;9.00;99.90;;;;;;4934369;28;20034;-79
2024/01/03 07:44:44;;;;;;;11.00;1.52;;;9.00;99.90;;;;;;4930117;28;20388;-79
2024/01/03 07:47:12;;;;;;;10.30;1.40;;;9.00;99.90;;;;;;4932271;28;20031;-79
2024/01/03 07:49:38;;;;;;;6.57;1.05;;;9.00;99.90;;;;;;4927597;28;20581;-78
2024/01/03 07:52:04;;;;;;;4.38;1.20;;;9.00;99.90;;;;;;4912864;28;20034;-81
2024/01/03 07:54:30;;;;;;;6.13;0.90;;;9.00;99.90;;;;;;4947607;28;20035;-79
2024/01/03 07:56:57;;;;;;;9.10;1.88;;;9.00;99.90;;;;;;4951664;28;20061;-79
2024/01/03 07:59:22;;;;;;;3.38;1.10;;;9.00;99.90;;;;;;4931790;28;20038;-79
2024/01/03 08:01:48;;;;;;;11.35;1.83;;;9.00;99.90;;;;;;4930534;28;20035;-79
2024/01/03 08:04:15;;;;;;;11.77;1.83;;;9.00;99.90;;;;;;4921258;28;20039;-79
2024/01/03 08:06:41;;;;;;;9.18;2.17;;;9.00;99.90;;;;;;4960851;28;20042;-79
2024/01/03 08:09:06;;;;;;;6.75;1.45;;;9.00;99.90;;;;;;4930470;28;20043;-79
2024/01/03 08:11:32;;;;;;;9.07;1.45;;;8.90;99.90;;;;;;4932931;28;20030;-79
2024/01/03 08:13:57;;;;;;;7.20;1.15;;;8.90;99.90;;;;;;4949148;28;20038;-79
2024/01/03 08:16:23;;;;;;;6.15;1.50;;;8.90;99.90;;;;;;4934548;28;20054;-79
2024/01/03 08:18:48;;;;;;;10.20;1.55;;;8.90;99.90;;;;;;4945936;28;20125;-79
2024/01/03 08:21:15;;;;;;;6.55;1.80;;;8.80;99.90;;;;;;4962753;28;20034;-80
2024/01/03 08:23:42;;;;;;;2.20;0.60;;;8.80;99.90;;;;;;4920087;28;20177;-79
2024/01/03 08:26:08;;;;;;;2.63;0.85;;;8.80;99.90;;;;;;4936558;28;20117;-79
2024/01/03 08:28:37;;;;;;;2.75;0.65;;;8.70;99.90;;;;;;4932098;28;20448;-79
2024/01/03 08:31:03;;;;;;;8.25;1.42;;;8.70;99.90;;;;;;4947968;28;20050;-79
2024/01/03 08:33:28;;;;;;;2.90;0.80;;;8.70;99.90;;;;;;4932987;28;20047;-80
2024/01/03 08:35:54;;;;;;;3.58;0.70;;;8.70;99.90;;;;;;4933026;28;20043;-79
2024/01/03 08:38:20;;;;;;;7.22;1.65;;;8.70;99.90;;;;;;4947133;28;20046;-80
2024/01/03 08:40:45;;;;;;;5.70;0.50;;;8.60;99.90;;;;;;4927944;28;20069;-79
2024/01/03 08:43:11;;;;;;;6.65;0.88;;;8.60;99.90;;;;;;4929586;28;20118;-80
2024/01/03 08:45:36;;;;;;;8.85;1.08;;;8.60;99.90;;;;;;4930243;28;20374;-79
2024/01/03 08:48:03;;;;;;;0.70;0.70;;;8.60;99.90;;;;;;4945707;28;20413;-79
2024/01/03 08:50:28;;;;;;;2.55;0.68;;;8.60;99.90;;;;;;4932030;28;20897;-80
2024/01/03 08:52:55;;;;;;;6.07;0.60;;;8.60;99.90;;;;;;4932281;28;20511;-79
2024/01/03 08:55:20;;;;;;;1.98;0.47;;;8.60;99.90;;;;;;4930872;28;20125;-80
2024/01/03 08:57:48;;;;;;;3.88;0.57;;;8.50;99.90;;;;;;4945328;28;20125;-80
2024/01/03 09:00:14;;;;;;;2.63;0.43;;;8.60;99.90;;;;;;4942385;28;20043;-81
2024/01/03 09:02:40;;;;;;;2.33;0.52;;;8.60;99.90;;;;;;4948463;28;20109;-80
2024/01/03 09:05:06;;;;;;;5.88;0.60;;;8.60;99.90;;;;;;4947467;28;20158;-81
2024/01/03 09:07:31;;;;;;;4.45;0.47;;;8.60;99.90;;;;;;4933142;28;20042;-80
2024/01/03 09:09:57;;;;;;;8.13;1.40;;;8.60;99.90;;;;;;4930940;28;20081;-81
2024/01/03 09:12:24;;;;;;;4.78;0.40;;;8.60;99.90;;;;;;4931042;28;20033;-77
2024/01/03 09:14:50;;;;;;;4.78;0.98;;;8.60;99.90;;;;;;4913952;28;20478;-76
2024/01/03 09:17:17;;;;;;;9.45;0.60;;;8.60;99.90;;;;;;4931169;28;20047;-77
2024/01/03 09:19:42;;;;;;;5.65;0.90;;;8.70;99.90;;;;;;4931952;28;20042;-77
2024/01/03 09:22:08;;;;;;;5.40;1.15;;;8.70;99.90;;;;;;4947566;28;20031;-77
2024/01/03 09:24:33;;;;;;;0.73;0.35;;;8.70;99.90;;;;;;4918280;28;20046;-76
2024/01/03 09:27:00;;;;;;;7.47;1.20;;;8.80;99.90;;;;;;4976036;28;20073;-77
2024/01/03 09:29:26;;;;;;;3.85;0.50;;;8.70;99.90;;;;;;4946434;28;20037;-77
2024/01/03 09:31:51;;;;;;;5.57;0.80;;;8.70;99.90;;;;;;4944323;28;20031;-76
2024/01/03 09:34:17;;;;;;;14.07;1.33;;;8.70;99.90;;;;;;4944010;28;20121;-77
2024/01/03 09:36:43;;;;;;;4.70;0.93;;;8.70;99.90;;;;;;4932485;28;20034;-77
2024/01/03 09:39:08;;;;;;;6.03;1.27;;;8.60;99.90;;;;;;4932696;28;20019;-76
2024/01/03 09:41:34;;;;;;;3.60;0.82;;;8.80;99.90;;;;;;4933351;28;20468;-77
2024/01/03 09:44:00;;;;;;;9.95;1.15;;;8.70;99.90;;;;;;4931380;28;20031;-77
2024/01/03 09:46:25;;;;;;;10.82;2.58;;;8.70;99.90;;;;;;4932753;28;20507;-76
2024/01/03 09:48:51;;;;;;;4.68;1.45;;;8.70;99.90;;;;;;4946192;28;20378;-77
2024/01/03 09:51:19;;;;;;;7.68;1.15;;;8.70;99.90;;;;;;4962354;28;20130;-77
2024/01/03 09:53:44;;;;;;;3.10;1.20;;;8.80;99.90;;;;;;4931325;28;20397;-76
2024/01/03 09:56:10;;;;;;;9.93;1.02;;;8.80;99.90;;;;;;4947973;28;20026;-76
2024/01/03 09:58:35;;;;;;;10.18;1.00;;;8.90;99.90;;;;;;4927629;28;20035;-76
2024/01/03 10:01:02;;;;;;;6.40;1.33;;;8.90;99.90;;;;;;4960262;28;20030;-77
2024/01/03 10:03:27;;;;;;;5.57;1.00;;;8.90;99.90;;;;;;4927955;28;20042;-76
2024/01/03 10:06:13;;;;;;;2.80;0.80;;;8.90;99.90;;;;;;4958272;28;20039;-77
2024/01/03 10:08:44;;;;;;;4.60;0.63;;;8.90;99.90;;;;;;4944123;28;20043;-78
2024/01/03 10:11:21;;;;;;;5.78;1.15;;;8.90;99.90;;;;;;4932446;28;20397;-78
2024/01/03 10:13:51;;;;;;;15.85;1.38;;;8.90;99.90;;;;;;4941386;28;20781;-77
2024/01/03 10:16:24;;;;;;;8.27;2.22;;;8.90;99.90;;;;;;4926860;28;20054;-78
2024/01/03 10:19:06;;;;;;;8.95;1.27;;;8.90;99.90;;;;;;4927978;28;20515;-77
2024/01/03 10:21:32;;;;;;;5.65;1.73;;;8.90;99.90;;;;;;4960388;28;20069;-77
2024/01/03 10:24:05;;;;;;;5.55;1.50;;;9.00;99.90;;;;;;4942806;28;20034;-77
2024/01/03 10:26:31;;;;;;;6.47;1.00;;;9.10;99.90;;;;;;4960910;28;20748;-77
2024/01/03 10:29:14;;;;;;;8.43;2.05;;;9.20;99.90;;;;;;4912024;28;20102;-78
2024/01/03 10:31:40;;;;;;;6.93;1.42;;;9.20;99.90;;;;;;4913985;28;20043;-78
2024/01/03 10:34:15;;;;;;;7.13;0.70;;;9.20;99.90;;;;;;4954544;28;20374;-78
2024/01/03 10:36:42;;;;;;;11.43;1.35;;;9.30;99.90;;;;;;4945800;28;20035;-78
2024/01/03 10:39:08;;;;;;;5.57;1.00;;;9.40;99.90;;;;;;4942530;28;20089;-77
2024/01/03 10:41:33;;;;;;;10.05;1.67;;;9.40;99.90;;;;;;4945566;28;20798;-77
2024/01/03 10:44:02;;;;;;;9.43;1.15;;;9.40;99.90;;;;;;4916759;28;20122;-77
2024/01/03 10:46:28;;;;;;;7.45;1.23;;;9.50;99.90;;;;;;4944235;28;20568;-77
2024/01/03 10:48:54;;;;;;;9.30;1.63;;;9.50;99.90;;;;;;4932468;28;20027;-77
2024/01/03 10:51:24;;;;;;;7.22;1.13;;;9.60;99.90;;;;;;4929597;28;20030;-77
2024/01/03 10:53:52;;;;;;;11.70;2.30;;;9.70;99.90;;;;;;4946198;28;20031;-77
2024/01/03 10:56:17;;;;;;;7.90;1.30;;;9.70;99.90;;;;;;4945821;28;20145;-77
2024/01/03 10:58:43;;;;;;;6.32;1.38;;;9.70;99.90;;;;;;4916448;28;20134;-77
2024/01/03 11:01:16;;;;;;;6.10;1.33;;;9.80;99.90;;;;;;4927697;28;20449;-77
2024/01/03 11:03:43;;;;;;;7.15;0.85;;;9.90;99.90;;;;;;4946051;28;20073;-77
2024/01/03 11:06:22;;;;;;;4.35;1.10;;;10.00;99.90;;;;;;4936290;28;20031;-76
2024/01/03 11:08:52;;;;;;;9.73;1.50;;;10.00;99.90;;;;;;4948754;28;20097;-81
2024/01/03 11:11:32;;;;;;;4.80;1.63;;;10.00;99.90;;;;;;4587018;28;10000016;-81
2024/01/03 11:14:00;;;;;;;4.07;1.02;;;10.00;99.90;;;;;;4957644;28;20062;-81
2024/01/03 11:16:36;;;;;;;6.32;0.98;;;10.10;99.90;;;;;;4927666;28;20459;-80
2024/01/03 11:19:02;;;;;;;6.50;1.67;;;10.10;99.90;;;;;;4932828;28;20030;-80
2024/01/03 11:21:30;;;;;;;8.15;1.05;;;10.10;99.90;;;;;;4946548;28;20038;-82
2024/01/03 11:23:56;;;;;;;9.13;1.65;;;10.10;99.90;;;;;;4929997;28;20891;-83
2024/01/03 11:27:03;;;;;;;6.13;1.40;;;10.10;99.90;;;;;;4947357;28;20034;-84
2024/01/03 11:29:35;;;;;;;;;;;10.10;99.90;;;;;;4945399;28;20062;-87
2024/01/03 11:32:06;;;;;;;8.88;1.52;;;10.10;99.90;;;;;;4959416;28;19922;-78
2024/01/03 11:34:42;;;;;;;13.55;1.65;;;10.10;99.90;;;;;;4911355;28;20552;-78
2024/01/03 11:37:30;;;;;;;9.77;1.13;;;10.10;99.90;;;;;;4942891;28;20063;-78
2024/01/03 11:39:57;;;;;;;13.25;2.00;;;9.90;99.90;;;;;;4938077;28;20034;-77
2024/01/03 11:42:40;;;;;;;11.55;1.98;;;9.90;99.90;;;;;;4573764;28;10000319;-77
2024/01/03 11:45:12;;;;;;;9.73;1.58;;;9.80;99.90;;;;;;4928927;28;20085;-77
2024/01/03 11:47:39;;;;;;;8.40;1.63;;;9.80;99.90;;;;;;4962913;28;20568;-77
2024/01/03 11:50:07;;;;;;;8.80;1.33;;;9.70;99.90;;;;;;4947366;28;20105;-77
2024/01/03 11:52:37;;;;;;;11.75;1.52;;;9.70;99.90;;;;;;4930511;28;20509;-77
2024/01/03 11:55:09;;;;;;;8.18;1.27;;;9.70;99.90;;;;;;4946991;28;20089;-76
2024/01/03 11:57:35;;;;;;;10.70;1.25;;;9.70;99.90;;;;;;4947936;28;20066;-77
2024/01/03 12:00:01;;;;;;;6.13;1.17;;;9.60;99.90;;;;;;4948542;28;20085;-76
2024/01/03 12:02:27;;;;;;;8.30;1.55;;;9.60;99.90;;;;;;4944495;28;20062;-76
2024/01/03 12:05:08;;;;;;;6.38;1.35;;;9.60;99.90;;;;;;4946869;28;20088;-76
2024/01/03 12:07:35;;;;;;;7.30;1.63;;;9.60;99.90;;;;;;4912740;28;20035;-77
2024/01/03 12:10:03;;;;;;;11.57;1.40;;;9.60;99.90;;;;;;4947638;28;20481;-77
2024/01/03 12:12:29;;;;;;;9.80;1.27;;;9.60;99.90;;;;;;4930213;28;20718;-77
2024/01/03 12:14:55;;;;;;;8.00;1.63;;;9.60;99.90;;;;;;4946478;28;20039;-77
2024/01/03 12:17:28;;;;;;;10.05;1.85;;;9.70;99.90;;;;;;4916927;28;20035;-77
2024/01/03 12:20:10;;;;;;;5.22;1.88;;;9.80;99.90;;;;;;4944756;28;20091;-77
2024/01/03 12:22:36;;;;;;;9.20;1.30;;;9.80;99.90;;;;;;4929550;28;20083;-77
2024/01/03 12:25:02;;;;;;;6.55;1.30;;;9.90;99.90;;;;;;4932917;28;20431;-76
2024/01/03 12:27:29;;;;;;;13.20;2.55;;;9.90;99.90;;;;;;4942800;28;20039;-76
2024/01/03 12:30:17;;;;;;;9.15;1.25;;;9.90;99.90;;;;;;4948601;28;20055;-81
2024/01/03 12:32:43;;;;;;;17.23;1.65;;;9.90;99.90;;;;;;4944904;28;20113;-82
2024/01/03 12:35:09;;;;;;;9.02;1.60;;;9.90;99.90;;;;;;4931474;28;20524;-82
2024/01/03 12:37:37;;;;;;;12.90;1.70;;;9.90;99.90;;;;;;4961523;28;20114;-82
2024/01/03 12:40:03;;;;;;;6.25;1.73;;;9.90;99.90;;;;;;4945810;28;20054;-80
2024/01/03 12:42:28;;;;;;;6.90;1.48;;;9.90;99.90;;;;;;4946600;28;20432;-77
2024/01/03 12:44:54;;;;;;;10.00;1.85;;;9.80;99.90;;;;;;4933593;28;20034;-77
2024/01/03 12:47:19;;;;;;;6.35;1.33;;;9.80;99.90;;;;;;4891677;29;20162;-77
2024/01/03 12:49:45;;;;;;;7.47;0.95;;;9.80;99.90;;;;;;4941740;28;20127;-76
2024/01/03 12:52:10;;;;;;;3.85;1.50;;;9.80;99.90;;;;;;4926461;28;20125;-76
2024/01/03 12:54:36;;;;;;;12.70;1.25;;;9.80;99.90;;;;;;4945182;28;20039;-76